Fontana, California
Current Conditions -  °F | °C
As of 2:53 AM on Wednesday 26 Nov 2014 (Local Time) from KONT Reporting Station
Clear Clear  
Wind Chill: 51°   Ceiling: Unl
Heat Index: 51°   Visibility: 10mi
Dew Point: 26°   Wind: 0mph
Humidity: 38%   Direction: NA
Pressure: 30.25"   Gusts: NA
Location:  34.1°N, 117.43°W
Report Text: KONT 261053Z 00000KT 10SM CLR 11/M03 A3025 RMK AO2 SLP236 T01061033
Loading
Personal Weather Stations






























Interactive Weather Map New forecast layout! Learn more

10-Day Weather Forecast

Advertisements
Track Severe Weather on mobile